1989 JOHN (1989023S08103)


On this page: IBTrACS data - Map and Plots - Positions - Intensities - Original source data

Summary

Start Jan 23
End Feb 2
Basin SI
LMI 45 kt
Sources bom
neumann
In WMO? Yes
Previous storm 1989 EDME (SI)
Previous in basin 1989 EDME (SI)
Concurrent storms 1989 EDME (SI)
1989 JOHN (SI)
1989 FIRINGA (SI)
1989 MISSING (WP)
Next in basin 1989 FIRINGA (SI)
Next storm 1989 FIRINGA (SI)

top of page IBTrACS Data: File Access

top of page HURSAT Data: File Access

Image of storm

top of page Plots:

Map of storm track will not appear if FTP is down
Time series of cyclone Maximum Sustained Wind will not appear if FTP is down
Time series of cyclone Minimum Central Pressure will not appear if FTP is down

top of page Track Data:Position

bom neumann
Date Lat Lon Lat Lon
1989-01-23 06:00:00 -7.6 103.3 -7.6 103.3
1989-01-23 12:00:00 -8.2 103.6 -8.2 103.6
1989-01-23 18:00:00 -8.7 103.8 -8.7 103.8
1989-01-24 00:00:00 -9.4 104.0 -9.4 104.0
1989-01-24 06:00:00 -10.2 103.4 -10.2 103.4
1989-01-24 12:00:00 -10.6 102.5 -10.6 102.5
1989-01-24 18:00:00 -10.8 101.4 -10.8 101.4
1989-01-25 00:00:00 -11.2 100.4 -11.2 100.4
1989-01-25 06:00:00 -11.4 99.7 -11.4 99.7
1989-01-25 12:00:00 -11.6 98.8 -11.6 98.8
1989-01-25 18:00:00 -11.8 98.1 -11.8 98.1
1989-01-26 00:00:00 -12.0 97.1 -12.0 97.1
1989-01-26 06:00:00 -12.0 96.7 -12.0 96.7
1989-01-26 12:00:00 -12.1 96.3 -12.1 96.3
1989-01-26 18:00:00 -12.2 96.0 -12.2 96.0
1989-01-27 00:00:00 -12.3 95.7 -12.3 95.7
1989-01-27 06:00:00 -12.4 95.0 -12.4 95.0
1989-01-27 12:00:00 -13.0 94.0 -13.0 94.0
1989-01-27 18:00:00 -13.6 94.9 -13.6 94.9
1989-01-28 00:00:00 -14.2 96.0 -14.2 96.0
1989-01-28 06:00:00 -15.3 97.2 -15.3 97.2
1989-01-28 12:00:00 -16.4 98.3 -16.4 98.3
1989-01-28 18:00:00 -17.6 99.6 -17.6 99.6
1989-01-29 00:00:00 -18.9 100.8 -18.9 100.8
1989-01-29 06:00:00 -19.5 101.0 -19.5 101.0
bom neumann
1989-01-29 12:00:00 -20.2 101.2 -20.2 101.2
1989-01-29 18:00:00 -20.8 101.3 -20.8 101.3
1989-01-30 00:00:00 -21.5 101.6 -21.5 101.6
1989-01-30 06:00:00 -22.1 101.9 -22.1 101.9
1989-01-30 12:00:00 -22.8 102.2 -22.8 102.2
1989-01-30 18:00:00 -23.6 102.5 -23.6 102.5
1989-01-31 00:00:00 -24.3 102.7 -24.3 102.7
1989-01-31 06:00:00 -25.0 103.0 -25.0 103.0
1989-01-31 12:00:00 -25.3 103.8 -25.3 103.8
1989-01-31 18:00:00 -25.7 104.8 -25.7 104.8
1989-02-01 00:00:00 -26.3 105.6 -26.3 105.6
1989-02-01 06:00:00 -26.9 106.0 -26.9 106.0
1989-02-01 12:00:00 -26.6 105.6 -26.6 105.6
1989-02-01 18:00:00 -26.3 105.3 -26.3 105.3
1989-02-02 00:00:00 -26.0 105.0 -26.0 105.0
1989-02-02 06:00:00 -25.9 104.1 -25.9 104.1

top of pageTrack Data:Intensity

bom neumann
Date Wind Pres Wind Pres
1989-01-23 06:00:00 1004. 20. 1004.
1989-01-23 12:00:00 1004. 20. 1004.
1989-01-23 18:00:00 1004. 20. 1004.
1989-01-24 00:00:00 1004. 20. 1004.
1989-01-24 06:00:00 1003. 25. 1003.
1989-01-24 12:00:00 21. 1002. 25. 1002.
1989-01-24 18:00:00 23. 1001. 25. 1001.
1989-01-25 00:00:00 25. 1000. 30. 1000.
1989-01-25 06:00:00 27. 999. 30. 999.
1989-01-25 12:00:00 27. 999. 30. 999.
1989-01-25 18:00:00 31. 997. 35. 997.
1989-01-26 00:00:00 31. 997. 35. 997.
1989-01-26 06:00:00 33. 996. 35. 996.
1989-01-26 12:00:00 35. 994. 40. 994.
1989-01-26 18:00:00 41. 991. 45. 991.
1989-01-27 00:00:00 41. 990. 45. 990.
1989-01-27 06:00:00 41. 990. 45. 990.
1989-01-27 12:00:00 41. 990. 45. 990.
1989-01-27 18:00:00 41. 990. 45. 990.
1989-01-28 00:00:00 41. 990. 45. 990.
1989-01-28 06:00:00 39. 992. 45. 992.
1989-01-28 12:00:00 37. 993. 40. 993.
1989-01-28 18:00:00 35. 995. 40. 995.
1989-01-29 00:00:00 31. 997. 35. 997.
1989-01-29 06:00:00 31. 997. 35. 997.
bom neumann
1989-01-29 12:00:00 29. 998. 35. 998.
1989-01-29 18:00:00 29. 998. 35. 998.
1989-01-30 00:00:00 29. 998. 35. 998.
1989-01-30 06:00:00 27. 999. 30. 999.
1989-01-30 12:00:00 27. 999. 30. 999.
1989-01-30 18:00:00 25. 1000. 30. 1000.
1989-01-31 00:00:00 25. 1000. 30. 1000.
1989-01-31 06:00:00 25. 1000. 30. 1000.
1989-01-31 12:00:00 23. 1001. 25. 1001.
1989-01-31 18:00:00 23. 1001. 25. 1001.
1989-02-01 00:00:00 21. 1002. 25. 1002.
1989-02-01 06:00:00 21. 1002. 25. 1002.
1989-02-01 12:00:00 1004. 20. 1004.
1989-02-01 18:00:00 1006. 15. 1006.
1989-02-02 00:00:00 1008. 15. 1008.
1989-02-02 06:00:00 1008. 15. 1008.

top of page Links to source data

Source Source file Format
bom IDCKMSTM0S.csv:Line=17315:JOHN CSV file (from Excel file)
neumann tracks.sh:Storm=846:JOHN:BSH991989:BM767&AMM HURDAT